sensor_id;sensor_type;location;lat;lon;timestamp;temperature;humidity
37300;DHT22;23184;51.902;12.836;2022-10-31T00:01:25;11.30;99.90
37300;DHT22;23184;51.902;12.836;2022-10-31T00:03:51;11.30;99.90
37300;DHT22;23184;51.902;12.836;2022-10-31T00:06:16;11.20;99.90
37300;DHT22;23184;51.902;12.836;2022-10-31T00:08:46;11.20;99.90
37300;DHT22;23184;51.902;12.836;2022-10-31T00:11:12;11.10;99.90
37300;DHT22;23184;51.902;12.836;2022-10-31T00:13:37;11.10;99.90
37300;DHT22;23184;51.902;12.836;2022-10-31T00:16:03;11.10;99.90
37300;DHT22;23184;51.902;12.836;2022-10-31T00:18:28;11.10;99.90
37300;DHT22;23184;51.902;12.836;2022-10-31T00:21:01;11.10;99.90
37300;DHT22;23184;51.902;12.836;2022-10-31T00:23:27;11.20;99.90
37300;DHT22;23184;51.902;12.836;2022-10-31T00:25:53;11.10;99.90
37300;DHT22;23184;51.902;12.836;2022-10-31T00:28:18;11.10;99.90
37300;DHT22;23184;51.902;12.836;2022-10-31T00:30:44;11.20;99.90
37300;DHT22;23184;51.902;12.836;2022-10-31T00:33:09;11.20;99.90
37300;DHT22;23184;51.902;12.836;2022-10-31T00:35:35;11.10;99.90
37300;DHT22;23184;51.902;12.836;2022-10-31T00:38:00;11.20;99.90
37300;DHT22;23184;51.902;12.836;2022-10-31T00:40:26;11.20;99.90
37300;DHT22;23184;51.902;12.836;2022-10-31T00:42:52;11.20;99.90
37300;DHT22;23184;51.902;12.836;2022-10-31T00:45:17;11.20;99.90
37300;DHT22;23184;51.902;12.836;2022-10-31T00:47:43;11.20;99.90
37300;DHT22;23184;51.902;12.836;2022-10-31T00:50:08;11.10;99.90
37300;DHT22;23184;51.902;12.836;2022-10-31T00:52:34;11.10;99.90
37300;DHT22;23184;51.902;12.836;2022-10-31T00:55:00;11.10;99.90
37300;DHT22;23184;51.902;12.836;2022-10-31T00:57:25;11.10;99.90
37300;DHT22;23184;51.902;12.836;2022-10-31T00:59:51;11.20;99.90
37300;DHT22;23184;51.902;12.836;2022-10-31T01:02:16;11.10;99.90
37300;DHT22;23184;51.902;12.836;2022-10-31T01:04:42;11.20;99.90
37300;DHT22;23184;51.902;12.836;2022-10-31T01:07:07;11.30;99.90
37300;DHT22;23184;51.902;12.836;2022-10-31T01:09:33;11.40;99.90
37300;DHT22;23184;51.902;12.836;2022-10-31T01:11:58;11.40;99.90
37300;DHT22;23184;51.902;12.836;2022-10-31T01:14:24;11.40;99.90
37300;DHT22;23184;51.902;12.836;2022-10-31T01:16:50;11.40;99.90
37300;DHT22;23184;51.902;12.836;2022-10-31T01:19:15;11.40;99.90
37300;DHT22;23184;51.902;12.836;2022-10-31T01:21:41;11.40;99.90
37300;DHT22;23184;51.902;12.836;2022-10-31T01:24:07;11.40;99.90
37300;DHT22;23184;51.902;12.836;2022-10-31T01:26:33;11.40;99.90
37300;DHT22;23184;51.902;12.836;2022-10-31T01:29:05;11.40;99.90
37300;DHT22;23184;51.902;12.836;2022-10-31T01:31:36;11.40;99.90
37300;DHT22;23184;51.902;12.836;2022-10-31T01:34:02;11.30;99.90
37300;DHT22;23184;51.902;12.836;2022-10-31T01:36:31;11.30;99.90
37300;DHT22;23184;51.902;12.836;2022-10-31T01:39:02;11.20;99.90
37300;DHT22;23184;51.902;12.836;2022-10-31T01:41:31;11.30;99.90
37300;DHT22;23184;51.902;12.836;2022-10-31T01:44:00;11.20;99.90
37300;DHT22;23184;51.902;12.836;2022-10-31T01:46:36;11.20;99.90
37300;DHT22;23184;51.902;12.836;2022-10-31T01:49:14;11.20;99.90
37300;DHT22;23184;51.902;12.836;2022-10-31T01:52:10;11.20;99.90
37300;DHT22;23184;51.902;12.836;2022-10-31T01:54:37;11.20;99.90
37300;DHT22;23184;51.902;12.836;2022-10-31T01:57:07;11.10;99.90
37300;DHT22;23184;51.902;12.836;2022-10-31T01:59:36;11.10;99.90
37300;DHT22;23184;51.902;12.836;2022-10-31T02:02:04;11.10;99.90
37300;DHT22;23184;51.902;12.836;2022-10-31T02:04:30;11.00;99.90
37300;DHT22;23184;51.902;12.836;2022-10-31T02:07:03;11.00;99.90
37300;DHT22;23184;51.902;12.836;2022-10-31T02:09:31;11.00;99.90
37300;DHT22;23184;51.902;12.836;2022-10-31T02:11:59;10.90;99.90
37300;DHT22;23184;51.902;12.836;2022-10-31T02:14:26;11.10;99.90
37300;DHT22;23184;51.902;12.836;2022-10-31T02:16:56;11.20;99.90
37300;DHT22;23184;51.902;12.836;2022-10-31T02:22:16;11.20;99.90
37300;DHT22;23184;51.902;12.836;2022-10-31T02:30:20;11.10;99.90
37300;DHT22;23184;51.902;12.836;2022-10-31T02:38:41;11.10;99.90
37300;DHT22;23184;51.902;12.836;2022-10-31T02:41:19;11.10;99.90
37300;DHT22;23184;51.902;12.836;2022-10-31T02:44:10;11.10;99.90
37300;DHT22;23184;51.902;12.836;2022-10-31T02:46:50;11.10;99.90
37300;DHT22;23184;51.902;12.836;2022-10-31T02:51:52;11.10;99.90
37300;DHT22;23184;51.902;12.836;2022-10-31T02:54:21;11.00;99.90
37300;DHT22;23184;51.902;12.836;2022-10-31T02:56:48;11.00;99.90
37300;DHT22;23184;51.902;12.836;2022-10-31T02:59:15;11.00;99.90
37300;DHT22;23184;51.902;12.836;2022-10-31T03:10:14;11.10;99.90
37300;DHT22;23184;51.902;12.836;2022-10-31T03:15:30;11.00;99.90
37300;DHT22;23184;51.902;12.836;2022-10-31T03:18:49;11.00;99.90
37300;DHT22;23184;51.902;12.836;2022-10-31T03:21:01;10.90;99.90
37300;DHT22;23184;51.902;12.836;2022-10-31T03:23:30;11.00;99.90
37300;DHT22;23184;51.902;12.836;2022-10-31T03:25:58;11.10;99.90
37300;DHT22;23184;51.902;12.836;2022-10-31T03:28:33;11.10;99.90
37300;DHT22;23184;51.902;12.836;2022-10-31T03:31:03;11.10;99.90
37300;DHT22;23184;51.902;12.836;2022-10-31T03:33:33;11.10;99.90
37300;DHT22;23184;51.902;12.836;2022-10-31T03:36:02;11.10;99.90
37300;DHT22;23184;51.902;12.836;2022-10-31T03:38:29;11.00;99.90
37300;DHT22;23184;51.902;12.836;2022-10-31T03:40:58;11.10;99.90
37300;DHT22;23184;51.902;12.836;2022-10-31T03:43:28;11.10;99.90
37300;DHT22;23184;51.902;12.836;2022-10-31T03:45:55;11.10;99.90
37300;DHT22;23184;51.902;12.836;2022-10-31T03:48:22;11.00;99.90
37300;DHT22;23184;51.902;12.836;2022-10-31T03:51:21;11.00;99.90
37300;DHT22;23184;51.902;12.836;2022-10-31T03:53:55;11.00;99.90
37300;DHT22;23184;51.902;12.836;2022-10-31T03:56:29;11.00;99.90
37300;DHT22;23184;51.902;12.836;2022-10-31T03:59:02;11.00;99.90
37300;DHT22;23184;51.902;12.836;2022-10-31T04:01:30;11.20;99.90
37300;DHT22;23184;51.902;12.836;2022-10-31T04:03:57;11.10;99.90
37300;DHT22;23184;51.902;12.836;2022-10-31T04:06:24;11.10;99.90
37300;DHT22;23184;51.902;12.836;2022-10-31T04:09:00;11.00;99.90
37300;DHT22;23184;51.902;12.836;2022-10-31T04:11:30;11.00;99.90
37300;DHT22;23184;51.902;12.836;2022-10-31T04:13:57;10.90;99.90
37300;DHT22;23184;51.902;12.836;2022-10-31T04:16:24;10.90;99.90
37300;DHT22;23184;51.902;12.836;2022-10-31T04:18:51;10.90;99.90
37300;DHT22;23184;51.902;12.836;2022-10-31T04:21:17;10.80;99.90
37300;DHT22;23184;51.902;12.836;2022-10-31T04:23:42;10.80;99.90
37300;DHT22;23184;51.902;12.836;2022-10-31T04:26:11;10.80;99.90
37300;DHT22;23184;51.902;12.836;2022-10-31T04:28:37;10.80;99.90
37300;DHT22;23184;51.902;12.836;2022-10-31T04:31:02;10.80;99.90
37300;DHT22;23184;51.902;12.836;2022-10-31T04:33:28;10.80;99.90
37300;DHT22;23184;51.902;12.836;2022-10-31T04:35:53;10.80;99.90
37300;DHT22;23184;51.902;12.836;2022-10-31T04:38:19;10.80;99.90
37300;DHT22;23184;51.902;12.836;2022-10-31T04:40:45;10.80;99.90
37300;DHT22;23184;51.902;12.836;2022-10-31T04:43:10;10.90;99.90
37300;DHT22;23184;51.902;12.836;2022-10-31T04:45:37;10.90;99.90
37300;DHT22;23184;51.902;12.836;2022-10-31T04:48:02;10.90;99.90
37300;DHT22;23184;51.902;12.836;2022-10-31T04:50:28;11.00;99.90
37300;DHT22;23184;51.902;12.836;2022-10-31T04:52:53;11.00;99.90
37300;DHT22;23184;51.902;12.836;2022-10-31T04:55:19;10.90;99.90
37300;DHT22;23184;51.902;12.836;2022-10-31T04:57:48;10.90;99.90
37300;DHT22;23184;51.902;12.836;2022-10-31T05:00:15;10.90;99.90
37300;DHT22;23184;51.902;12.836;2022-10-31T05:02:43;11.00;99.90
37300;DHT22;23184;51.902;12.836;2022-10-31T05:05:09;11.00;99.90
37300;DHT22;23184;51.902;12.836;2022-10-31T05:07:39;11.00;99.90
37300;DHT22;23184;51.902;12.836;2022-10-31T05:10:05;10.70;99.90
37300;DHT22;23184;51.902;12.836;2022-10-31T05:12:31;10.70;99.90
37300;DHT22;23184;51.902;12.836;2022-10-31T05:14:56;10.50;99.90
37300;DHT22;23184;51.902;12.836;2022-10-31T05:17:22;10.50;99.90
37300;DHT22;23184;51.902;12.836;2022-10-31T05:19:47;10.50;99.90
37300;DHT22;23184;51.902;12.836;2022-10-31T05:22:13;10.40;99.90
37300;DHT22;23184;51.902;12.836;2022-10-31T05:24:38;10.40;99.90
37300;DHT22;23184;51.902;12.836;2022-10-31T05:27:04;10.40;99.90
37300;DHT22;23184;51.902;12.836;2022-10-31T05:29:29;10.40;99.90
37300;DHT22;23184;51.902;12.836;2022-10-31T05:31:58;10.40;99.90
37300;DHT22;23184;51.902;12.836;2022-10-31T05:34:24;10.50;99.90
37300;DHT22;23184;51.902;12.836;2022-10-31T05:36:49;10.50;99.90
37300;DHT22;23184;51.902;12.836;2022-10-31T05:39:15;10.50;99.90
37300;DHT22;23184;51.902;12.836;2022-10-31T05:41:40;10.60;99.90
37300;DHT22;23184;51.902;12.836;2022-10-31T05:44:06;10.50;99.90
37300;DHT22;23184;51.902;12.836;2022-10-31T05:46:32;10.40;99.90
37300;DHT22;23184;51.902;12.836;2022-10-31T05:48:57;10.30;99.90
37300;DHT22;23184;51.902;12.836;2022-10-31T05:51:23;10.30;99.90
37300;DHT22;23184;51.902;12.836;2022-10-31T05:53:48;10.30;99.90
37300;DHT22;23184;51.902;12.836;2022-10-31T05:56:14;10.40;99.90
37300;DHT22;23184;51.902;12.836;2022-10-31T05:58:39;10.30;99.90
37300;DHT22;23184;51.902;12.836;2022-10-31T06:01:05;10.40;99.90
37300;DHT22;23184;51.902;12.836;2022-10-31T06:03:30;10.40;99.90
37300;DHT22;23184;51.902;12.836;2022-10-31T06:05:56;10.40;99.90
37300;DHT22;23184;51.902;12.836;2022-10-31T06:08:22;10.40;99.90
37300;DHT22;23184;51.902;12.836;2022-10-31T06:10:49;10.40;99.90
37300;DHT22;23184;51.902;12.836;2022-10-31T06:13:15;10.50;99.90
37300;DHT22;23184;51.902;12.836;2022-10-31T06:15:41;10.50;99.90
37300;DHT22;23184;51.902;12.836;2022-10-31T06:18:08;10.50;99.90
37300;DHT22;23184;51.902;12.836;2022-10-31T06:20:34;10.50;99.90
37300;DHT22;23184;51.902;12.836;2022-10-31T06:22:59;10.50;99.90
37300;DHT22;23184;51.902;12.836;2022-10-31T06:25:25;10.60;99.90
37300;DHT22;23184;51.902;12.836;2022-10-31T06:27:51;10.60;99.90
37300;DHT22;23184;51.902;12.836;2022-10-31T06:30:16;10.60;99.90
37300;DHT22;23184;51.902;12.836;2022-10-31T06:32:42;10.60;99.90
37300;DHT22;23184;51.902;12.836;2022-10-31T06:35:08;10.70;99.90
37300;DHT22;23184;51.902;12.836;2022-10-31T06:37:33;10.80;99.90
37300;DHT22;23184;51.902;12.836;2022-10-31T06:39:59;10.80;99.90
37300;DHT22;23184;51.902;12.836;2022-10-31T06:42:24;10.90;99.90
37300;DHT22;23184;51.902;12.836;2022-10-31T06:44:50;10.90;99.90
37300;DHT22;23184;51.902;12.836;2022-10-31T06:47:15;11.00;99.90
37300;DHT22;23184;51.902;12.836;2022-10-31T06:49:41;11.10;99.90
37300;DHT22;23184;51.902;12.836;2022-10-31T06:52:06;11.20;99.90
37300;DHT22;23184;51.902;12.836;2022-10-31T06:54:32;11.20;99.90
37300;DHT22;23184;51.902;12.836;2022-10-31T06:56:57;11.30;99.90
37300;DHT22;23184;51.902;12.836;2022-10-31T06:59:23;11.30;99.90
37300;DHT22;23184;51.902;12.836;2022-10-31T07:01:49;11.30;99.90
37300;DHT22;23184;51.902;12.836;2022-10-31T07:04:15;11.30;99.90
37300;DHT22;23184;51.902;12.836;2022-10-31T07:06:41;11.30;99.90
37300;DHT22;23184;51.902;12.836;2022-10-31T07:09:06;11.20;99.90
37300;DHT22;23184;51.902;12.836;2022-10-31T07:11:32;11.00;99.90
37300;DHT22;23184;51.902;12.836;2022-10-31T07:13:58;10.90;99.90
37300;DHT22;23184;51.902;12.836;2022-10-31T07:16:23;10.80;99.90
37300;DHT22;23184;51.902;12.836;2022-10-31T07:18:49;10.60;99.90
37300;DHT22;23184;51.902;12.836;2022-10-31T07:21:15;10.60;99.90
37300;DHT22;23184;51.902;12.836;2022-10-31T07:23:41;10.60;99.90
37300;DHT22;23184;51.902;12.836;2022-10-31T07:26:07;10.50;99.90
37300;DHT22;23184;51.902;12.836;2022-10-31T07:28:33;10.40;99.90
37300;DHT22;23184;51.902;12.836;2022-10-31T07:30:58;10.60;99.90
37300;DHT22;23184;51.902;12.836;2022-10-31T07:33:24;10.70;99.90
37300;DHT22;23184;51.902;12.836;2022-10-31T07:35:53;10.90;99.90
37300;DHT22;23184;51.902;12.836;2022-10-31T07:38:19;11.00;99.90
37300;DHT22;23184;51.902;12.836;2022-10-31T07:40:50;11.10;99.90
37300;DHT22;23184;51.902;12.836;2022-10-31T07:43:16;11.20;99.90
37300;DHT22;23184;51.902;12.836;2022-10-31T07:45:41;11.20;99.90
37300;DHT22;23184;51.902;12.836;2022-10-31T07:48:07;11.30;99.90
37300;DHT22;23184;51.902;12.836;2022-10-31T07:50:33;11.30;99.90
37300;DHT22;23184;51.902;12.836;2022-10-31T07:53:06;11.40;99.90
37300;DHT22;23184;51.902;12.836;2022-10-31T07:55:32;11.50;99.90
37300;DHT22;23184;51.902;12.836;2022-10-31T07:58:00;11.50;99.90
37300;DHT22;23184;51.902;12.836;2022-10-31T08:00:26;11.50;99.90
37300;DHT22;23184;51.902;12.836;2022-10-31T08:05:23;11.70;99.90
37300;DHT22;23184;51.902;12.836;2022-10-31T08:07:49;12.00;99.90
37300;DHT22;23184;51.902;12.836;2022-10-31T08:10:14;12.10;99.90
37300;DHT22;23184;51.902;12.836;2022-10-31T08:12:40;12.20;99.90
37300;DHT22;23184;51.902;12.836;2022-10-31T08:15:06;12.40;99.90
37300;DHT22;23184;51.902;12.836;2022-10-31T08:17:35;12.60;99.90
37300;DHT22;23184;51.902;12.836;2022-10-31T08:20:01;12.80;99.90
37300;DHT22;23184;51.902;12.836;2022-10-31T08:22:26;13.00;99.90
37300;DHT22;23184;51.902;12.836;2022-10-31T08:24:52;13.20;99.90
37300;DHT22;23184;51.902;12.836;2022-10-31T08:27:17;13.50;99.90
37300;DHT22;23184;51.902;12.836;2022-10-31T08:29:43;13.70;99.90
37300;DHT22;23184;51.902;12.836;2022-10-31T08:32:08;14.20;99.90
37300;DHT22;23184;51.902;12.836;2022-10-31T08:34:34;14.70;99.90
37300;DHT22;23184;51.902;12.836;2022-10-31T08:36:59;14.90;99.90
37300;DHT22;23184;51.902;12.836;2022-10-31T08:39:25;15.10;99.90
37300;DHT22;23184;51.902;12.836;2022-10-31T08:41:50;15.50;99.90
37300;DHT22;23184;51.902;12.836;2022-10-31T08:44:17;15.60;99.90
37300;DHT22;23184;51.902;12.836;2022-10-31T08:46:43;16.00;99.90
37300;DHT22;23184;51.902;12.836;2022-10-31T08:49:08;15.80;99.90
37300;DHT22;23184;51.902;12.836;2022-10-31T08:51:34;16.10;99.90
37300;DHT22;23184;51.902;12.836;2022-10-31T08:53:59;16.30;99.90
37300;DHT22;23184;51.902;12.836;2022-10-31T08:56:25;16.10;99.90
37300;DHT22;23184;51.902;12.836;2022-10-31T08:58:53;15.90;99.90
37300;DHT22;23184;51.902;12.836;2022-10-31T09:01:18;16.20;99.90
37300;DHT22;23184;51.902;12.836;2022-10-31T09:03:44;16.40;99.90
37300;DHT22;23184;51.902;12.836;2022-10-31T09:06:10;16.60;99.90
37300;DHT22;23184;51.902;12.836;2022-10-31T09:08:36;17.00;99.90
37300;DHT22;23184;51.902;12.836;2022-10-31T09:11:02;17.10;99.90
37300;DHT22;23184;51.902;12.836;2022-10-31T09:13:28;17.30;99.90
37300;DHT22;23184;51.902;12.836;2022-10-31T09:15:53;17.70;99.90
37300;DHT22;23184;51.902;12.836;2022-10-31T09:18:21;17.90;99.90
37300;DHT22;23184;51.902;12.836;2022-10-31T09:20:48;18.40;99.90
37300;DHT22;23184;51.902;12.836;2022-10-31T09:23:19;19.40;99.90
37300;DHT22;23184;51.902;12.836;2022-10-31T09:25:46;20.00;99.90
37300;DHT22;23184;51.902;12.836;2022-10-31T09:28:14;20.40;99.90
37300;DHT22;23184;51.902;12.836;2022-10-31T09:30:39;19.80;99.90
37300;DHT22;23184;51.902;12.836;2022-10-31T09:33:09;20.00;99.90
37300;DHT22;23184;51.902;12.836;2022-10-31T09:35:35;20.20;99.90
37300;DHT22;23184;51.902;12.836;2022-10-31T09:38:03;19.20;99.90
37300;DHT22;23184;51.902;12.836;2022-10-31T09:40:36;19.00;99.90
37300;DHT22;23184;51.902;12.836;2022-10-31T09:43:10;18.80;99.90
37300;DHT22;23184;51.902;12.836;2022-10-31T09:51:05;18.90;99.90
37300;DHT22;23184;51.902;12.836;2022-10-31T09:56:01;17.60;99.90
37300;DHT22;23184;51.902;12.836;2022-10-31T09:58:30;18.00;99.90
37300;DHT22;23184;51.902;12.836;2022-10-31T10:01:00;18.10;99.90
37300;DHT22;23184;51.902;12.836;2022-10-31T10:03:45;18.30;99.90
37300;DHT22;23184;51.902;12.836;2022-10-31T10:06:15;18.20;99.90
37300;DHT22;23184;51.902;12.836;2022-10-31T10:08:42;18.30;99.90
37300;DHT22;23184;51.902;12.836;2022-10-31T10:11:13;18.40;99.90
37300;DHT22;23184;51.902;12.836;2022-10-31T10:14:08;18.40;99.90
37300;DHT22;23184;51.902;12.836;2022-10-31T10:16:59;18.40;99.90
37300;DHT22;23184;51.902;12.836;2022-10-31T10:19:42;18.20;99.90
37300;DHT22;23184;51.902;12.836;2022-10-31T10:22:31;18.20;99.90
37300;DHT22;23184;51.902;12.836;2022-10-31T10:25:16;18.00;99.90
37300;DHT22;23184;51.902;12.836;2022-10-31T10:33:16;18.30;99.90
37300;DHT22;23184;51.902;12.836;2022-10-31T10:35:45;18.40;99.90
37300;DHT22;23184;51.902;12.836;2022-10-31T10:41:00;18.30;99.90
37300;DHT22;23184;51.902;12.836;2022-10-31T10:43:33;18.40;99.90
37300;DHT22;23184;51.902;12.836;2022-10-31T10:54:59;18.50;99.90
37300;DHT22;23184;51.902;12.836;2022-10-31T11:00:20;18.20;99.90
37300;DHT22;23184;51.902;12.836;2022-10-31T11:02:46;17.60;99.90
37300;DHT22;23184;51.902;12.836;2022-10-31T11:05:46;17.40;99.90
37300;DHT22;23184;51.902;12.836;2022-10-31T11:08:33;17.20;99.90
37300;DHT22;23184;51.902;12.836;2022-10-31T11:11:27;17.10;99.90
37300;DHT22;23184;51.902;12.836;2022-10-31T11:14:11;17.10;99.90
37300;DHT22;23184;51.902;12.836;2022-10-31T11:16:40;17.10;99.90
37300;DHT22;23184;51.902;12.836;2022-10-31T11:19:21;17.10;99.90
37300;DHT22;23184;51.902;12.836;2022-10-31T11:21:48;17.20;99.90
37300;DHT22;23184;51.902;12.836;2022-10-31T11:24:20;17.40;99.90
37300;DHT22;23184;51.902;12.836;2022-10-31T11:26:50;17.40;99.90
37300;DHT22;23184;51.902;12.836;2022-10-31T11:29:21;17.40;99.90
37300;DHT22;23184;51.902;12.836;2022-10-31T11:31:47;17.40;99.90
37300;DHT22;23184;51.902;12.836;2022-10-31T11:34:18;17.50;99.90
37300;DHT22;23184;51.902;12.836;2022-10-31T11:36:48;17.50;99.90
37300;DHT22;23184;51.902;12.836;2022-10-31T11:39:23;17.50;99.90
37300;DHT22;23184;51.902;12.836;2022-10-31T11:41:50;17.40;99.90
37300;DHT22;23184;51.902;12.836;2022-10-31T11:46:51;17.60;99.90
37300;DHT22;23184;51.902;12.836;2022-10-31T11:52:00;17.80;99.90
37300;DHT22;23184;51.902;12.836;2022-10-31T11:54:32;17.80;99.90
37300;DHT22;23184;51.902;12.836;2022-10-31T11:56:59;17.70;99.90
37300;DHT22;23184;51.902;12.836;2022-10-31T11:59:30;17.80;99.90
37300;DHT22;23184;51.902;12.836;2022-10-31T12:01:59;17.80;99.90
37300;DHT22;23184;51.902;12.836;2022-10-31T12:04:37;17.70;99.90
37300;DHT22;23184;51.902;12.836;2022-10-31T12:07:03;17.80;99.90
37300;DHT22;23184;51.902;12.836;2022-10-31T12:09:32;17.80;99.90
37300;DHT22;23184;51.902;12.836;2022-10-31T12:14:57;17.80;99.90
37300;DHT22;23184;51.902;12.836;2022-10-31T12:29:02;17.90;99.90
37300;DHT22;23184;51.902;12.836;2022-10-31T12:34:32;17.90;99.90
37300;DHT22;23184;51.902;12.836;2022-10-31T13:01:16;17.70;99.90
37300;DHT22;23184;51.902;12.836;2022-10-31T13:03:56;17.50;99.90
37300;DHT22;23184;51.902;12.836;2022-10-31T13:06:29;17.40;99.90
37300;DHT22;23184;51.902;12.836;2022-10-31T13:09:00;17.30;99.90
37300;DHT22;23184;51.902;12.836;2022-10-31T13:11:40;17.50;99.90
37300;DHT22;23184;51.902;12.836;2022-10-31T13:14:24;17.60;99.90
37300;DHT22;23184;51.902;12.836;2022-10-31T13:16:51;17.50;99.90
37300;DHT22;23184;51.902;12.836;2022-10-31T13:19:23;17.40;99.90
37300;DHT22;23184;51.902;12.836;2022-10-31T13:22:01;17.30;99.90
37300;DHT22;23184;51.902;12.836;2022-10-31T13:27:22;17.10;99.90
37300;DHT22;23184;51.902;12.836;2022-10-31T13:30:04;17.10;99.90
37300;DHT22;23184;51.902;12.836;2022-10-31T13:32:49;17.10;99.90
37300;DHT22;23184;51.902;12.836;2022-10-31T13:38:30;17.00;99.90
37300;DHT22;23184;51.902;12.836;2022-10-31T13:41:09;16.90;99.90
37300;DHT22;23184;51.902;12.836;2022-10-31T13:46:40;16.70;99.90
37300;DHT22;23184;51.902;12.836;2022-10-31T13:59:58;16.50;99.90
37300;DHT22;23184;51.902;12.836;2022-10-31T14:02:31;16.50;99.90
37300;DHT22;23184;51.902;12.836;2022-10-31T14:05:01;16.50;99.90
37300;DHT22;23184;51.902;12.836;2022-10-31T14:07:29;16.60;99.90
37300;DHT22;23184;51.902;12.836;2022-10-31T14:10:04;16.70;99.90
37300;DHT22;23184;51.902;12.836;2022-10-31T14:12:40;16.80;99.90
37300;DHT22;23184;51.902;12.836;2022-10-31T14:17:49;16.70;99.90
37300;DHT22;23184;51.902;12.836;2022-10-31T14:22:42;16.80;99.90
37300;DHT22;23184;51.902;12.836;2022-10-31T14:27:55;16.60;99.90
37300;DHT22;23184;51.902;12.836;2022-10-31T14:30:23;16.50;99.90
37300;DHT22;23184;51.902;12.836;2022-10-31T14:32:52;16.50;99.90
37300;DHT22;23184;51.902;12.836;2022-10-31T14:35:20;16.50;99.90
37300;DHT22;23184;51.902;12.836;2022-10-31T14:38:14;16.40;99.90
37300;DHT22;23184;51.902;12.836;2022-10-31T14:43:40;16.40;99.90
37300;DHT22;23184;51.902;12.836;2022-10-31T14:46:41;16.40;99.90
37300;DHT22;23184;51.902;12.836;2022-10-31T14:51:47;16.40;99.90
37300;DHT22;23184;51.902;12.836;2022-10-31T14:54:25;16.30;99.90
37300;DHT22;23184;51.902;12.836;2022-10-31T14:56:55;16.30;99.90
37300;DHT22;23184;51.902;12.836;2022-10-31T14:59:26;16.20;99.90
37300;DHT22;23184;51.902;12.836;2022-10-31T15:01:57;16.20;99.90
37300;DHT22;23184;51.902;12.836;2022-10-31T15:04:25;16.10;99.90
37300;DHT22;23184;51.902;12.836;2022-10-31T15:06:59;16.10;99.90
37300;DHT22;23184;51.902;12.836;2022-10-31T15:09:29;16.00;99.90
37300;DHT22;23184;51.902;12.836;2022-10-31T15:11:55;16.00;99.90
37300;DHT22;23184;51.902;12.836;2022-10-31T15:14:28;15.90;99.90
37300;DHT22;23184;51.902;12.836;2022-10-31T15:16:56;15.80;99.90
37300;DHT22;23184;51.902;12.836;2022-10-31T15:19:24;15.70;99.90
37300;DHT22;23184;51.902;12.836;2022-10-31T15:21:52;15.60;99.90
37300;DHT22;23184;51.902;12.836;2022-10-31T15:24:19;15.60;99.90
37300;DHT22;23184;51.902;12.836;2022-10-31T15:26:51;15.50;99.90
37300;DHT22;23184;51.902;12.836;2022-10-31T15:29:23;15.40;99.90
37300;DHT22;23184;51.902;12.836;2022-10-31T15:31:54;15.30;99.90
37300;DHT22;23184;51.902;12.836;2022-10-31T15:34:41;15.20;99.90
37300;DHT22;23184;51.902;12.836;2022-10-31T15:37:15;15.20;99.90
37300;DHT22;23184;51.902;12.836;2022-10-31T15:39:42;15.10;99.90
37300;DHT22;23184;51.902;12.836;2022-10-31T15:42:35;15.10;99.90
37300;DHT22;23184;51.902;12.836;2022-10-31T15:47:36;15.00;99.90
37300;DHT22;23184;51.902;12.836;2022-10-31T15:50:06;14.90;99.90
37300;DHT22;23184;51.902;12.836;2022-10-31T15:52:45;14.90;99.90
37300;DHT22;23184;51.902;12.836;2022-10-31T15:57:45;14.80;99.90
37300;DHT22;23184;51.902;12.836;2022-10-31T16:00:28;14.70;99.90
37300;DHT22;23184;51.902;12.836;2022-10-31T16:05:51;14.50;99.90
37300;DHT22;23184;51.902;12.836;2022-10-31T16:10:56;14.40;99.90
37300;DHT22;23184;51.902;12.836;2022-10-31T16:14:04;14.40;99.90
37300;DHT22;23184;51.902;12.836;2022-10-31T16:16:28;14.30;99.90
37300;DHT22;23184;51.902;12.836;2022-10-31T16:18:55;14.30;99.90
37300;DHT22;23184;51.902;12.836;2022-10-31T16:21:33;14.30;99.90
37300;DHT22;23184;51.902;12.836;2022-10-31T16:24:21;14.20;99.90
37300;DHT22;23184;51.902;12.836;2022-10-31T16:26:52;14.20;99.90
37300;DHT22;23184;51.902;12.836;2022-10-31T16:31:54;14.10;99.90
37300;DHT22;23184;51.902;12.836;2022-10-31T16:34:21;14.10;99.90
37300;DHT22;23184;51.902;12.836;2022-10-31T16:36:47;14.00;99.90
37300;DHT22;23184;51.902;12.836;2022-10-31T16:39:13;14.00;99.90
37300;DHT22;23184;51.902;12.836;2022-10-31T16:41:44;14.00;99.90
37300;DHT22;23184;51.902;12.836;2022-10-31T16:44:22;14.00;99.90
37300;DHT22;23184;51.902;12.836;2022-10-31T16:47:08;13.90;99.90
37300;DHT22;23184;51.902;12.836;2022-10-31T16:49:34;13.90;99.90
37300;DHT22;23184;51.902;12.836;2022-10-31T16:51:59;13.80;99.90
37300;DHT22;23184;51.902;12.836;2022-10-31T16:54:25;13.80;99.90
37300;DHT22;23184;51.902;12.836;2022-10-31T16:56:50;13.80;99.90
37300;DHT22;23184;51.902;12.836;2022-10-31T16:59:16;13.80;99.90
37300;DHT22;23184;51.902;12.836;2022-10-31T17:01:45;13.80;99.90
37300;DHT22;23184;51.902;12.836;2022-10-31T17:04:13;13.70;99.90
37300;DHT22;23184;51.902;12.836;2022-10-31T17:06:40;13.70;99.90
37300;DHT22;23184;51.902;12.836;2022-10-31T17:09:05;13.70;99.90
37300;DHT22;23184;51.902;12.836;2022-10-31T17:11:31;13.70;99.90
37300;DHT22;23184;51.902;12.836;2022-10-31T17:13:56;13.70;99.90
37300;DHT22;23184;51.902;12.836;2022-10-31T17:16:22;13.70;99.90
37300;DHT22;23184;51.902;12.836;2022-10-31T17:18:48;13.80;99.90
37300;DHT22;23184;51.902;12.836;2022-10-31T17:21:22;13.80;99.90
37300;DHT22;23184;51.902;12.836;2022-10-31T17:23:48;13.80;99.90
37300;DHT22;23184;51.902;12.836;2022-10-31T17:26:14;13.90;99.90
37300;DHT22;23184;51.902;12.836;2022-10-31T17:28:39;13.90;99.90
37300;DHT22;23184;51.902;12.836;2022-10-31T17:31:05;13.90;99.90
37300;DHT22;23184;51.902;12.836;2022-10-31T17:33:31;13.90;99.90
37300;DHT22;23184;51.902;12.836;2022-10-31T17:35:57;14.00;99.90
37300;DHT22;23184;51.902;12.836;2022-10-31T17:38:23;14.00;99.90
37300;DHT22;23184;51.902;12.836;2022-10-31T17:40:48;14.00;99.90
37300;DHT22;23184;51.902;12.836;2022-10-31T17:43:14;14.00;99.90
37300;DHT22;23184;51.902;12.836;2022-10-31T17:45:40;14.00;99.90
37300;DHT22;23184;51.902;12.836;2022-10-31T17:48:06;14.00;99.90
37300;DHT22;23184;51.902;12.836;2022-10-31T17:50:32;14.00;99.90
37300;DHT22;23184;51.902;12.836;2022-10-31T17:52:58;14.00;99.90
37300;DHT22;23184;51.902;12.836;2022-10-31T17:55:23;14.00;99.90
37300;DHT22;23184;51.902;12.836;2022-10-31T17:57:49;14.00;99.90
37300;DHT22;23184;51.902;12.836;2022-10-31T18:00:17;14.00;99.90